Time;durP1;ratioP1;P1;durP2;ratioP2;P2;SDS_P1;SDS_P2;PMS_P1;PMS_P2;Temp;Humidity;BMP_temperature;BMP_pressure;BME280_temperature;BME280_humidity;BME280_pressure;Samples;Min_cycle;Max_cycle;Signal;HPM_P1;HPM_P2
2021/12/14 00:01:49;;;;;;;17.75;10.95;;;;;;;23.44;34.80;101397.95;1873907;76;22137;-58
2021/12/14 00:04:31;;;;;;;17.02;10.00;;;;;;;23.44;34.76;101393.89;1892832;76;22128;-57
2021/12/14 00:07:22;;;;;;;18.82;11.30;;;;;;;23.45;34.74;101381.99;1892705;76;22128;-57
2021/12/14 00:12:59;;;;;;;17.60;11.08;;;;;;;23.47;34.71;101374.99;1892708;76;22582;-57
2021/12/14 00:15:47;;;;;;;17.75;10.82;;;;;;;23.47;34.66;101371.76;1892720;76;22564;-57
2021/12/14 00:18:39;;;;;;;17.65;10.40;;;;;;;23.48;34.65;101380.76;1892683;76;22104;-57
2021/12/14 00:21:20;;;;;;;18.57;11.03;;;;;;;23.49;34.66;101372.93;1873910;76;22137;-56
2021/12/14 00:24:09;;;;;;;16.45;10.00;;;;;;;23.51;34.65;101371.35;1873912;76;22136;-57
2021/12/14 00:26:49;;;;;;;16.73;10.43;;;;;;;23.53;34.62;101369.28;1892714;76;22123;-57
2021/12/14 00:29:32;;;;;;;16.75;10.60;;;;;;;23.55;34.57;101375.33;1892714;76;22124;-56
2021/12/14 00:32:27;;;;;;;16.42;10.18;;;;;;;23.57;34.55;101374.58;1873896;76;22097;-56
2021/12/14 00:35:01;;;;;;;17.85;10.28;;;;;;;23.57;34.53;101382.23;1874065;76;20106;-57
2021/12/14 00:37:37;;;;;;;18.32;10.38;;;;;;;23.58;34.50;101383.05;1873921;76;22121;-57
2021/12/14 00:40:23;;;;;;;16.40;10.50;;;;;;;23.59;34.51;101390.14;1858005;76;28286;-56
2021/12/14 00:43:09;;;;;;;15.25;9.48;;;;;;;23.65;34.40;101392.87;1873910;76;22133;-57
2021/12/14 00:46:00;;;;;;;16.07;9.48;;;;;;;23.68;34.32;101400.61;1873893;76;22129;-58
2021/12/14 00:48:32;;;;;;;16.07;9.30;;;;;;;23.68;34.30;101392.47;1873921;76;22112;-57
2021/12/14 00:51:28;;;;;;;14.98;9.48;;;;;;;23.67;34.30;101378.60;1892682;76;22149;-57
2021/12/14 00:54:00;;;;;;;16.82;9.08;;;;;;;23.66;34.31;101380.98;1892706;76;22135;-58
2021/12/14 00:56:33;;;;;;;15.45;9.78;;;;;;;23.64;34.32;101381.72;1873930;76;22125;-57
2021/12/14 00:59:25;;;;;;;14.10;8.48;;;;;;;23.64;34.32;101376.82;1892667;76;22124;-58
2021/12/14 01:02:08;;;;;;;14.10;8.33;;;;;;;23.63;34.32;101377.31;1873915;76;22128;-58
2021/12/14 01:05:01;;;;;;;14.85;9.20;;;;;;;23.61;34.35;101378.02;1873912;76;22129;-57
2021/12/14 01:07:52;;;;;;;14.18;8.60;;;;;;;23.62;34.34;101365.30;1873894;76;22569;-58
2021/12/14 01:10:32;;;;;;;13.30;8.33;;;;;;;23.61;34.35;101363.63;1873923;76;22125;-57
2021/12/14 01:13:25;;;;;;;13.43;8.20;;;;;;;23.60;34.30;101362.80;1873910;76;22578;-58
2021/12/14 01:19:13;;;;;;;15.80;8.75;;;;;;;23.59;34.31;101348.93;1873920;76;22597;-57
2021/12/14 01:27:36;;;;;;;14.85;8.05;;;;;;;23.56;34.31;101357.48;1892704;76;22120;-57
2021/12/14 01:30:55;;;;;;;14.80;8.60;;;;;;;23.55;34.33;101369.90;1874003;76;22132;-58
2021/12/14 01:33:21;;;;;;;14.23;8.35;;;;;;;23.53;34.35;101384.20;1873908;76;22124;-57
2021/12/14 01:36:31;;;;;;;15.65;9.08;;;;;;;23.51;34.42;101377.61;1892692;76;22119;-58
2021/12/14 01:39:22;;;;;;;16.85;9.25;;;;;;;23.51;34.44;101381.67;1892706;76;22586;-57
2021/12/14 01:42:13;;;;;;;15.65;9.23;;;;;;;23.52;34.43;101365.71;1873901;76;22137;-58
2021/12/14 01:44:52;;;;;;;18.48;8.48;;;;;;;23.53;34.42;101360.62;1873920;76;22134;-58
2021/12/14 01:47:35;;;;;;;17.50;9.03;;;;;;;23.56;34.40;101360.72;1873914;76;22133;-56
2021/12/14 01:50:53;;;;;;;15.93;9.28;;;;;;;23.58;34.37;101348.63;1892695;76;22173;-58
2021/12/14 01:53:26;;;;;;;14.33;8.43;;;;;;;23.60;34.33;101347.05;1873943;76;22120;-57
2021/12/14 01:56:22;;;;;;;16.00;8.85;;;;;;;23.63;34.29;101349.36;1874009;76;22125;-57
2021/12/14 01:58:58;;;;;;;15.38;9.50;;;;;;;23.65;34.26;101340.50;1876652;76;27895;-56
2021/12/14 02:01:37;;;;;;;15.08;8.65;;;;;;;23.74;34.17;101346.55;1892723;76;22132;-57
2021/12/14 02:04:26;;;;;;;15.55;8.70;;;;;;;23.81;34.04;101340.61;1873908;76;22178;-57
2021/12/14 02:07:02;;;;;;;16.40;8.83;;;;;;;23.84;34.00;101337.46;1892725;76;22120;-56
2021/12/14 02:09:35;;;;;;;16.50;9.45;;;;;;;23.87;33.97;101335.69;1892713;76;22581;-56
2021/12/14 02:12:27;;;;;;;15.98;9.08;;;;;;;23.88;33.95;101335.47;1873879;76;22120;-55
2021/12/14 02:15:11;;;;;;;14.93;8.60;;;;;;;23.89;33.92;101337.12;1892715;76;22116;-57
2021/12/14 02:18:09;;;;;;;12.82;8.13;;;;;;;23.91;33.91;101341.02;1892700;76;22561;-57
2021/12/14 02:20:48;;;;;;;14.93;8.53;;;;;;;23.92;33.90;101344.86;1892704;76;22590;-57
2021/12/14 02:23:20;;;;;;;15.15;8.73;;;;;;;23.94;33.84;101336.50;1873941;76;22121;-57
2021/12/14 02:26:15;;;;;;;11.85;7.22;;;;;;;23.95;33.84;101340.38;1873914;76;22191;-57
2021/12/14 02:28:47;;;;;;;15.15;9.03;;;;;;;23.96;33.82;101345.28;1858002;76;28312;-57
2021/12/14 02:31:40;;;;;;;14.35;8.75;;;;;;;24.05;33.70;101339.94;1873895;76;22121;-57
2021/12/14 02:34:11;;;;;;;12.60;7.83;;;;;;;24.08;33.61;101341.38;1873919;76;22121;-57
2021/12/14 02:37:03;;;;;;;12.28;8.05;;;;;;;24.07;33.59;101318.00;1873884;76;22574;-57
2021/12/14 02:42:18;;;;;;;15.45;8.08;;;;;;;24.05;33.57;101307.36;1874024;76;22129;-57
2021/12/14 02:45:08;;;;;;;13.88;7.83;;;;;;;24.05;33.60;101305.17;1892688;76;22120;-57
2021/12/14 02:47:40;;;;;;;14.58;8.28;;;;;;;24.03;33.60;101296.39;1874039;76;22158;-57
2021/12/14 02:50:12;;;;;;;12.82;7.95;;;;;;;24.02;33.61;101302.35;1892814;76;22553;-57
2021/12/14 02:52:44;;;;;;;13.30;7.42;;;;;;;24.01;33.61;101302.58;1873923;76;22143;-57
2021/12/14 02:55:20;;;;;;;13.10;7.83;;;;;;;23.98;33.60;101295.15;1873917;76;22101;-57
2021/12/14 02:58:12;;;;;;;12.88;7.20;;;;;;;23.96;33.61;101285.05;1873892;76;22128;-57
2021/12/14 03:00:48;;;;;;;12.55;7.72;;;;;;;23.94;33.61;101278.98;1892713;76;22564;-57
2021/12/14 03:03:20;;;;;;;13.72;7.47;;;;;;;23.94;33.63;101285.77;1874011;76;22165;-57
2021/12/14 03:06:16;;;;;;;13.98;7.72;;;;;;;23.92;33.66;101286.52;1892789;76;22144;-57
2021/12/14 03:08:56;;;;;;;12.65;7.75;;;;;;;23.90;33.69;101287.27;1874009;76;22121;-56
2021/12/14 03:11:18;;;;;;;13.53;8.23;;;;;;;23.89;33.70;101277.95;1873929;76;22120;-57
2021/12/14 03:13:52;;;;;;;14.75;7.83;;;;;;;23.89;33.72;101273.36;1892724;76;22128;-56
2021/12/14 03:16:42;;;;;;;13.93;8.03;;;;;;;23.88;33.71;101268.98;1892686;76;22096;-56
2021/12/14 03:19:14;;;;;;;15.48;8.43;;;;;;;23.88;33.70;101266.27;1892685;76;22593;-57
2021/12/14 03:21:46;;;;;;;15.88;8.38;;;;;;;23.90;33.71;101257.91;1873899;76;22148;-56
2021/12/14 03:24:39;;;;;;;13.75;7.90;;;;;;;23.90;33.69;101261.48;1873887;76;22566;-57
2021/12/14 03:27:11;;;;;;;19.37;8.63;;;;;;;23.91;33.71;101256.36;1873925;76;22101;-57
2021/12/14 03:30:02;;;;;;;14.03;7.97;;;;;;;23.93;33.69;101264.28;1892674;76;22127;-56
2021/12/14 03:32:34;;;;;;;15.98;8.33;;;;;;;23.94;33.67;101276.27;1873928;76;22097;-57
2021/12/14 03:35:39;;;;;;;14.00;8.23;;;;;;;23.97;33.64;101275.85;1873878;76;22120;-57
2021/12/14 03:38:20;;;;;;;13.53;8.48;;;;;;;24.01;33.61;101276.27;1873913;76;22129;-57
2021/12/14 03:41:19;;;;;;;13.48;8.08;;;;;;;24.02;33.57;101271.14;1873879;76;22129;-57
2021/12/14 03:43:58;;;;;;;12.15;7.78;;;;;;;24.04;33.57;101281.25;1873910;76;22158;-57
2021/12/14 03:46:36;;;;;;;12.55;7.17;;;;;;;24.06;33.54;101283.23;1892692;76;22159;-56
2021/12/14 03:49:41;;;;;;;15.30;8.15;;;;;;;24.08;33.53;101281.66;1892693;76;22137;-56
2021/12/14 03:52:17;;;;;;;14.45;8.10;;;;;;;24.10;33.51;101274.16;1873922;76;22189;-57
2021/12/14 03:54:49;;;;;;;15.18;8.78;;;;;;;24.11;33.45;101276.64;1876636;76;27863;-57
2021/12/14 03:57:21;;;;;;;12.63;7.85;;;;;;;24.17;33.39;101281.73;1874035;76;22121;-56
2021/12/14 03:59:53;;;;;;;15.50;8.25;;;;;;;24.22;33.26;101278.67;1873916;76;22554;-56
2021/12/14 04:02:46;;;;;;;15.30;9.10;;;;;;;24.24;33.29;101270.34;1873899;76;22121;-56
2021/12/14 04:05:18;;;;;;;14.40;8.48;;;;;;;24.25;33.28;101242.12;1892834;76;22155;-57
2021/12/14 04:07:50;;;;;;;15.03;8.55;;;;;;;24.25;33.22;101231.80;1873928;76;22117;-57
2021/12/14 04:10:27;;;;;;;15.65;9.20;;;;;;;24.26;33.21;101237.53;1873927;76;22595;-56
2021/12/14 04:13:21;;;;;;;14.70;8.15;;;;;;;24.27;33.25;101240.55;1873882;76;22142;-57
2021/12/14 04:15:53;;;;;;;17.82;9.00;;;;;;;24.27;33.21;101260.91;1873926;76;22121;-57
2021/12/14 04:18:27;;;;;;;14.55;8.95;;;;;;;24.26;33.21;101275.02;1873928;76;22142;-57
2021/12/14 04:21:00;;;;;;;15.55;9.28;;;;;;;24.27;33.25;101282.10;1873911;76;22141;-56
2021/12/14 04:23:52;;;;;;;14.85;8.40;;;;;;;24.27;33.26;101278.03;1873879;76;22128;-56
2021/12/14 04:26:24;;;;;;;16.85;9.53;;;;;;;24.27;33.26;101284.81;1892833;76;22100;-56
2021/12/14 04:29:15;;;;;;;17.32;9.58;;;;;;;24.27;33.26;101286.17;1873993;76;22125;-56
2021/12/14 04:31:47;;;;;;;17.02;9.38;;;;;;;24.27;33.28;101297.03;1873912;76;22563;-57
2021/12/14 04:34:19;;;;;;;16.45;9.48;;;;;;;24.28;33.28;101304.16;1873926;76;22117;-56
2021/12/14 04:37:14;;;;;;;16.50;9.73;;;;;;;24.29;33.28;101311.25;1873900;76;22125;-56
2021/12/14 04:39:51;;;;;;;16.70;10.58;;;;;;;24.29;33.28;101309.89;1892719;76;22569;-57
2021/12/14 04:54:06;;;;;;;17.82;10.50;;;;;;;24.41;33.08;101283.74;1873925;76;22128;-56
2021/12/14 04:56:58;;;;;;;18.30;10.28;;;;;;;24.40;33.09;101275.30;1892662;76;22135;-57
2021/12/14 04:59:50;;;;;;;18.77;10.75;;;;;;;24.40;33.09;101273.11;1874854;75;22197;-57
2021/12/14 05:02:33;;;;;;;18.07;11.20;;;;;;;24.38;33.12;101263.83;1873928;76;22121;-56
2021/12/14 05:05:31;;;;;;;17.70;11.33;;;;;;;24.37;33.14;101262.66;1874009;76;22154;-56
2021/12/14 05:10:47;;;;;;;17.42;10.63;;;;;;;24.36;33.15;101282.20;1873923;76;22142;-56
2021/12/14 05:13:27;;;;;;;20.25;12.40;;;;;;;24.36;33.17;101286.77;1873797;76;22574;-56
2021/12/14 05:16:24;;;;;;;23.05;11.78;;;;;;;24.35;33.17;101297.33;1873678;76;22144;-54
2021/12/14 05:19:03;;;;;;;20.48;12.60;;;;;;;24.33;33.05;101303.52;1857989;76;27901;-56
2021/12/14 05:21:44;;;;;;;18.67;11.12;;;;;;;24.35;32.83;101298.16;1873838;76;22121;-55
2021/12/14 05:24:41;;;;;;;21.17;12.23;;;;;;;24.35;32.72;101310.91;1873909;76;22149;-58
2021/12/14 05:27:37;;;;;;;21.12;13.40;;;;;;;24.29;32.73;101309.06;1857999;76;28353;-43
2021/12/14 05:30:28;;;;;;;20.57;13.85;;;;;;;24.30;32.72;101308.01;1857894;76;27917;-58
2021/12/14 05:33:08;;;;;;;21.87;13.68;;;;;;;24.30;32.80;101304.77;1873841;76;22137;-56
2021/12/14 05:35:40;;;;;;;21.40;14.40;;;;;;;24.34;32.81;101306.53;1892551;76;22120;-54
2021/12/14 05:38:21;;;;;;;22.22;14.13;;;;;;;24.27;32.75;101316.05;1892668;76;22119;-55
2021/12/14 05:43:28;;;;;;;24.23;15.20;;;;;;;24.15;32.75;101316.42;1873517;76;22641;-54
2021/12/14 05:46:21;;;;;;;22.85;15.13;;;;;;;24.10;32.85;101329.80;1873595;76;22485;-54
2021/12/14 05:48:58;;;;;;;21.55;13.80;;;;;;;24.06;32.92;101339.41;1892240;76;22146;-51
2021/12/14 05:51:52;;;;;;;24.47;14.15;;;;;;;24.02;32.70;101334.92;1857412;76;27906;-52
2021/12/14 05:54:27;;;;;;;24.57;14.65;;;;;;;24.03;32.46;101333.04;1892310;76;22168;-48
2021/12/14 05:57:21;;;;;;;22.90;15.45;;;;;;;24.04;32.41;101330.10;1873399;76;22645;-45
2021/12/14 05:59:54;;;;;;;26.40;16.10;;;;;;;24.00;32.38;101323.98;1892197;76;22159;-45
2021/12/14 06:02:25;;;;;;;24.70;16.25;;;;;;;23.95;32.33;101320.02;1873293;76;22153;-42
2021/12/14 06:04:57;;;;;;;25.55;15.50;;;;;;;23.93;32.26;101315.84;1892080;76;22161;-45
2021/12/14 06:07:29;;;;;;;25.70;15.63;;;;;;;23.89;32.46;101322.20;1873282;76;22129;-46
2021/12/14 06:10:01;;;;;;;25.85;15.80;;;;;;;23.86;32.81;101323.17;1873227;76;22149;-44
2021/12/14 06:12:52;;;;;;;24.57;14.60;;;;;;;23.84;33.12;101315.75;1872853;76;22192;-46
2021/12/14 06:15:27;;;;;;;22.87;14.05;;;;;;;23.82;33.36;101314.62;1872903;76;22184;-43
2021/12/14 06:17:58;;;;;;;26.30;14.03;;;;;;;23.81;33.58;101310.24;1872546;76;22140;-43
2021/12/14 06:20:58;;;;;;;25.32;12.80;;;;;;;23.81;33.87;101310.77;1873082;76;22101;-54
2021/12/14 06:23:29;;;;;;;24.77;13.45;;;;;;;23.78;33.81;101309.30;1891799;76;22589;-44
2021/12/14 06:26:01;;;;;;;23.15;12.50;;;;;;;23.79;33.98;101306.06;1872873;76;22192;-44
2021/12/14 06:28:33;;;;;;;24.32;13.53;;;;;;;23.78;34.14;101301.69;1872831;76;22117;-51
2021/12/14 06:48:38;;;;;;;32.60;13.80;;;;;;;24.04;39.54;101283.12;1891607;76;24239;-41
2021/12/14 07:07:26;;;;;;;22.77;11.70;;;;;;;24.35;37.28;101292.73;1891727;76;24179;-31
2021/12/14 07:10:00;;;;;;;24.37;10.85;;;;;;;24.43;35.66;101295.24;1873290;76;22133;-29
2021/12/14 07:12:52;;;;;;;23.47;10.82;;;;;;;24.55;34.55;101297.27;1892063;76;22557;-30
2021/12/14 07:15:26;;;;;;;23.90;12.23;;;;;;;24.62;34.14;101301.63;1873329;76;22162;-30
2021/12/14 07:18:17;;;;;;;25.52;11.83;;;;;;;24.70;33.92;101304.59;1891970;76;22152;-29
2021/12/14 07:20:49;;;;;;;20.90;12.40;;;;;;;24.76;33.80;101301.55;1892106;76;22136;-30
2021/12/14 07:23:40;;;;;;;26.37;12.53;;;;;;;24.80;33.58;101303.63;1873490;76;22153;-29
2021/12/14 07:26:14;;;;;;;27.85;13.32;;;;;;;24.85;33.45;101286.66;1892585;76;22112;-30
2021/12/14 07:29:25;;;;;;;26.05;13.58;;;;;;;24.87;33.29;101289.45;1871912;75;22220;-30
2021/12/14 07:31:57;;;;;;;29.05;13.18;;;;;;;24.90;33.29;101291.73;1873537;76;22184;-29
2021/12/14 07:34:28;;;;;;;27.93;13.05;;;;;;;24.89;33.15;101302.31;1892244;76;22128;-29
2021/12/14 07:37:01;;;;;;;27.87;13.90;;;;;;;24.89;33.14;101301.45;1873017;76;22210;-29
2021/12/14 07:39:32;;;;;;;25.43;12.90;;;;;;;24.89;33.20;101301.45;1869830;76;22585;-30
2021/12/14 07:42:05;;;;;;;30.45;12.50;;;;;;;24.87;33.32;101299.48;1873300;76;22607;-29
2021/12/14 07:44:58;;;;;;;26.50;12.45;;;;;;;24.86;33.25;101305.45;1891918;76;22136;-30
2021/12/14 07:47:30;;;;;;;28.02;11.88;;;;;;;24.83;33.39;101304.52;1873136;76;22625;-33
2021/12/14 07:50:45;;;;;;;27.80;13.43;;;;;;;24.82;33.36;101301.50;1883693;75;22244;-33
2021/12/14 07:53:34;;;;;;;30.30;12.03;;;;;;;24.82;33.57;101293.88;1870355;76;22180;-30
2021/12/14 07:56:38;;;;;;;28.62;13.10;;;;;;;24.81;33.45;101299.02;1873387;76;22140;-30
2021/12/14 07:59:25;;;;;;;28.60;14.90;;;;;;;24.80;33.38;101294.64;1857817;76;27877;-32
2021/12/14 08:02:26;;;;;;;30.30;13.22;;;;;;;24.84;33.55;101298.06;1873615;76;22605;-33
2021/12/14 08:05:12;;;;;;;33.38;14.40;;;;;;;24.89;33.61;101298.73;1873613;76;22230;-30
2021/12/14 08:07:48;;;;;;;32.80;17.67;;;;;;;24.89;33.68;101291.94;1857699;76;28339;-30
2021/12/14 08:20:00;;;;;;;37.17;27.15;;;;;;;24.89;33.52;101294.66;1913136;74;28365;-26
2021/12/14 08:22:38;;;;;;;50.23;31.87;;;;;;;24.85;33.48;101294.28;1892824;76;22143;-24
2021/12/14 08:25:11;;;;;;;46.90;31.80;;;;;;;24.80;33.83;101298.19;1874030;76;22526;-26
2021/12/14 08:28:06;;;;;;;45.60;32.28;;;;;;;24.77;34.43;101293.17;1874096;76;22157;-26
2021/12/14 08:30:41;;;;;;;46.92;31.90;;;;;;;24.76;34.26;101279.29;1872967;76;20231;-26
2021/12/14 08:44:37;;;;;;;40.90;29.60;;;;;;;24.62;34.47;101276.34;1792134;79;21363;-41
2021/12/14 08:47:13;;;;;;;39.75;29.50;;;;;;;24.61;35.05;101277.41;1892278;76;22151;-46
2021/12/14 08:49:45;;;;;;;35.55;27.93;;;;;;;24.60;35.26;101274.35;1865408;76;22618;-48
2021/12/14 08:52:17;;;;;;;37.40;28.98;;;;;;;24.62;35.33;101280.42;1873304;76;22168;-43
2021/12/14 08:55:11;;;;;;;38.42;28.27;;;;;;;24.63;35.40;101266.61;1873770;76;22133;-43
2021/12/14 08:57:43;;;;;;;39.92;30.12;;;;;;;24.67;35.32;101269.20;1892296;76;23287;-46
2021/12/14 09:00:26;;;;;;;38.38;29.18;;;;;;;24.71;35.28;101265.53;1873549;76;22160;-47
2021/12/14 09:03:00;;;;;;;40.25;29.40;;;;;;;24.76;35.49;101271.66;1889257;76;22224;-27
2021/12/14 09:05:37;;;;;;;34.20;27.98;;;;;;;24.80;35.41;101265.58;1873092;76;22201;-25
2021/12/14 09:08:10;;;;;;;40.83;30.62;;;;;;;24.84;35.21;101265.45;1892065;76;22162;-25
2021/12/14 09:10:43;;;;;;;35.78;30.35;;;;;;;24.89;34.65;101250.67;1892081;76;22128;-26
2021/12/14 09:13:15;;;;;;;41.28;31.23;;;;;;;24.91;34.67;101252.62;1873597;76;22471;-25
2021/12/14 09:16:11;;;;;;;44.13;31.12;;;;;;;24.94;34.47;101253.55;1873422;76;22153;-25
2021/12/14 09:18:48;;;;;;;43.50;30.70;;;;;;;24.99;34.54;101255.61;1892251;76;22173;-25
2021/12/14 09:21:42;;;;;;;39.85;29.37;;;;;;;25.03;34.54;101255.98;1873515;76;22201;-24
2021/12/14 09:24:17;;;;;;;45.10;32.23;;;;;;;25.05;34.33;101235.69;1873391;76;22629;-26
2021/12/14 09:26:54;;;;;;;36.88;29.55;;;;;;;25.08;34.30;101241.23;1873528;76;22217;-25
2021/12/14 09:29:32;;;;;;;40.50;30.68;;;;;;;25.10;34.20;101234.53;1873494;76;22149;-25
2021/12/14 09:32:27;;;;;;;40.40;28.62;;;;;;;25.13;34.17;101232.73;1892254;76;22156;-24
2021/12/14 09:34:58;;;;;;;37.45;29.50;;;;;;;25.15;34.10;101235.22;1892139;76;22169;-25
2021/12/14 09:37:51;;;;;;;33.38;27.98;;;;;;;25.16;34.18;101235.52;1892298;76;22192;-25
2021/12/14 09:40:32;;;;;;;38.67;27.77;;;;;;;25.16;34.17;101234.98;1848038;76;22179;-26
2021/12/14 09:43:23;;;;;;;34.98;26.95;;;;;;;25.16;34.13;101232.80;1873665;76;22205;-24
2021/12/14 09:45:57;;;;;;;36.25;26.48;;;;;;;25.17;34.10;101233.09;1892648;76;22173;-25
2021/12/14 09:48:53;;;;;;;38.10;26.02;;;;;;;25.15;34.12;101230.61;1873502;76;22587;-25
2021/12/14 09:51:33;;;;;;;32.83;26.02;;;;;;;25.15;34.26;101223.81;1873595;76;22121;-24
2021/12/14 09:54:08;;;;;;;35.25;25.12;;;;;;;25.16;34.19;101224.64;1873374;76;22132;-25
2021/12/14 09:56:45;;;;;;;31.23;24.75;;;;;;;25.16;34.33;101224.11;1892291;76;22204;-24
2021/12/14 09:59:17;;;;;;;31.65;24.20;;;;;;;25.18;34.30;101232.90;1856572;76;22219;-25
2021/12/14 10:02:16;;;;;;;33.78;23.00;;;;;;;25.19;34.45;101233.73;1873428;76;22125;-25
2021/12/14 10:04:53;;;;;;;36.48;22.52;;;;;;;25.20;34.24;101231.30;1891932;76;22312;-25
2021/12/14 10:07:25;;;;;;;34.58;23.02;;;;;;;25.18;34.03;101230.71;1873430;76;22212;-25
2021/12/14 10:09:59;;;;;;;32.35;22.93;;;;;;;25.15;34.26;101231.14;1873739;76;22120;-25
2021/12/14 10:12:54;;;;;;;31.82;22.25;;;;;;;25.13;33.92;101232.73;1873862;76;22566;-23
2021/12/14 10:15:47;;;;;;;29.98;22.05;;;;;;;25.13;33.88;101229.19;1876642;76;27861;-25
2021/12/14 10:18:41;;;;;;;33.58;21.25;;;;;;;25.16;33.51;101228.19;1873911;76;20204;-24
2021/12/14 10:21:35;;;;;;;30.57;20.65;;;;;;;25.16;33.80;101220.56;1873805;76;22181;-26
2021/12/14 10:24:14;;;;;;;31.77;19.98;;;;;;;25.14;33.70;101215.36;1873867;76;22150;-24
2021/12/14 10:26:51;;;;;;;29.87;19.73;;;;;;;25.16;33.67;101224.64;1873993;76;22128;-25
2021/12/14 10:29:43;;;;;;;34.43;20.35;;;;;;;25.20;33.56;101232.66;1857941;76;27902;-25
2021/12/14 10:32:24;;;;;;;27.48;18.30;;;;;;;25.26;33.40;101232.30;1892693;76;22548;-25
2021/12/14 10:35:22;;;;;;;24.98;18.55;;;;;;;25.34;33.22;101240.17;1873929;76;22116;-25
2021/12/14 10:38:10;;;;;;;25.25;18.23;;;;;;;25.36;33.15;101244.35;1892772;76;22104;-25
2021/12/14 10:43:37;;;;;;;28.42;17.70;;;;;;;25.38;33.01;101233.23;1873951;76;22162;-24
2021/12/14 10:46:17;;;;;;;25.52;17.50;;;;;;;25.34;33.09;101230.66;1873962;76;22149;-25
2021/12/14 10:49:08;;;;;;;26.02;17.17;;;;;;;25.37;32.97;101230.22;1873968;76;22105;-24
2021/12/14 10:51:42;;;;;;;27.15;18.10;;;;;;;25.37;32.92;101226.14;1873821;76;22172;-24
2021/12/14 10:54:15;;;;;;;23.77;16.23;;;;;;;25.35;32.92;101220.91;1892772;76;22622;-25
2021/12/14 10:56:59;;;;;;;24.20;16.67;;;;;;;25.35;32.91;101223.63;1892671;76;22104;-25
2021/12/14 10:59:52;;;;;;;24.23;15.60;;;;;;;25.31;32.87;101224.30;1873516;76;22173;-25
2021/12/14 11:02:26;;;;;;;25.37;15.98;;;;;;;25.27;32.87;101223.94;1873620;76;22133;-25
2021/12/14 11:05:00;;;;;;;27.65;15.35;;;;;;;25.27;32.80;101235.34;1850276;76;22595;-26
2021/12/14 11:07:41;;;;;;;22.50;14.90;;;;;;;25.26;32.74;101242.64;1873365;76;22136;-23
2021/12/14 11:10:29;;;;;;;29.15;15.63;;;;;;;25.23;32.83;101237.67;1892259;76;22144;-24
2021/12/14 11:13:08;;;;;;;24.25;14.80;;;;;;;25.21;33.30;101237.88;1892274;76;22139;-25
2021/12/14 11:15:48;;;;;;;23.25;15.03;;;;;;;25.23;33.74;101233.59;1873604;76;22602;-24
2021/12/14 11:18:39;;;;;;;24.07;14.18;;;;;;;25.27;34.00;101230.73;1873555;76;22170;-25
2021/12/14 11:21:13;;;;;;;25.48;14.58;;;;;;;25.32;34.23;101233.61;1873629;76;22200;-24
2021/12/14 11:23:48;;;;;;;31.60;13.58;;;;;;;25.38;34.59;101235.42;1873735;76;22096;-25
2021/12/14 11:26:39;;;;;;;25.57;13.53;;;;;;;25.43;34.97;101228.78;1873745;76;22606;-25
2021/12/14 11:29:13;;;;;;;25.85;13.40;;;;;;;25.47;34.30;101228.64;1873517;76;22124;-25
2021/12/14 11:32:05;;;;;;;23.00;13.78;;;;;;;25.47;33.42;101228.64;1873657;76;22575;-24
2021/12/14 11:34:37;;;;;;;23.50;14.00;;;;;;;25.44;33.19;101233.69;1873353;76;22182;-25
2021/12/14 11:37:14;;;;;;;22.95;12.88;;;;;;;25.40;33.13;101224.31;1892065;76;22160;-25
2021/12/14 11:39:52;;;;;;;23.90;13.70;;;;;;;25.36;33.26;101226.67;1873057;76;22181;-26
2021/12/14 11:42:25;;;;;;;25.57;13.18;;;;;;;25.35;33.28;101225.52;1867703;76;22136;-24
2021/12/14 11:45:10;;;;;;;21.40;13.13;;;;;;;25.33;33.15;101212.16;1873465;76;22176;-24
2021/12/14 11:47:53;;;;;;;21.50;12.65;;;;;;;25.29;33.12;101212.29;1873526;76;22168;-25
2021/12/14 11:50:35;;;;;;;23.95;13.22;;;;;;;25.26;33.03;101215.98;1873634;76;22156;-24
2021/12/14 11:53:14;;;;;;;23.52;13.08;;;;;;;25.23;32.93;101222.71;1873783;76;22601;-24
2021/12/14 11:56:12;;;;;;;23.02;12.37;;;;;;;25.19;32.95;101224.20;1867400;75;22729;-25
2021/12/14 11:59:05;;;;;;;23.75;12.13;;;;;;;25.09;33.04;101234.23;1873490;76;22137;-24
2021/12/14 12:01:50;;;;;;;23.77;12.10;;;;;;;25.12;33.00;101225.61;1873570;76;22164;-24
2021/12/14 12:04:46;;;;;;;24.23;11.78;;;;;;;25.08;32.98;101218.98;1873224;76;22655;-24
2021/12/14 12:11:46;;;;;;;6.65;4.35;;;;;;;23.45;24.06;101204.89;1873053;76;24068;-63
2021/12/14 12:14:28;;;;;;;7.25;3.83;;;;;;;19.27;26.62;101220.76;1852512;76;22236;-62
2021/12/14 12:17:27;;;;;;;7.65;4.10;;;;;;;14.92;32.56;101231.47;1845419;76;22253;-60
2021/12/14 12:20:13;;;;;;;8.10;4.05;;;;;;;11.53;38.61;101245.27;1845339;76;22680;-59
2021/12/14 12:23:12;;;;;;;6.87;4.10;;;;;;;9.06;44.12;101243.55;1862573;76;23042;-63
2021/12/14 12:26:01;;;;;;;10.53;4.97;;;;;;;7.29;50.76;101243.45;1859097;76;22200;-61
2021/12/14 12:28:43;;;;;;;10.88;5.87;;;;;;;5.84;53.67;101256.84;1872734;76;22611;-58
2021/12/14 12:31:20;;;;;;;11.50;5.37;;;;;;;4.86;56.35;101261.38;1873018;76;22176;-61
2021/12/14 12:34:11;;;;;;;13.03;6.80;;;;;;;4.06;59.88;101263.22;1857390;76;28997;-62
2021/12/14 12:36:43;;;;;;;9.18;4.85;;;;;;;3.54;61.96;101269.09;1873184;76;22165;-60
2021/12/14 12:39:18;;;;;;;15.08;5.92;;;;;;;3.16;65.36;101277.63;1872561;76;22196;-63
2021/12/14 12:41:58;;;;;;;13.60;5.60;;;;;;;2.68;66.30;101283.04;1873481;76;22615;-61
2021/12/14 12:44:35;;;;;;;17.82;8.50;;;;;;;2.33;68.96;101281.65;1873500;76;22141;-62
2021/12/14 12:47:20;;;;;;;17.67;8.43;;;;;;;2.02;70.79;101283.08;1879386;76;22152;-61
2021/12/14 12:50:12;;;;;;;18.20;7.58;;;;;;;1.76;71.27;101275.54;1853974;76;22683;-63
2021/12/14 12:52:47;;;;;;;18.70;7.90;;;;;;;1.65;72.45;101281.27;1862619;76;22174;-61
2021/12/14 12:55:42;;;;;;;10.75;4.85;;;;;;;1.53;73.15;101294.42;1868106;76;22228;-67
2021/12/14 12:58:16;;;;;;;39.53;6.55;;;;;;;1.43;74.21;101283.11;1873062;76;22153;-51
2021/12/14 13:01:18;;;;;;;11.38;4.90;;;;;;;1.51;76.87;101277.94;1872970;76;24797;-57
2021/12/14 13:03:49;;;;;;;13.80;7.05;;;;;;;2.01;77.04;101277.42;1841794;76;22167;-62
2021/12/14 13:06:41;;;;;;;18.55;8.73;;;;;;;2.05;75.00;101285.55;1891767;76;22683;-62
2021/12/14 13:09:13;;;;;;;15.05;6.75;;;;;;;1.87;74.93;101294.23;1873226;76;22156;-62
2021/12/14 13:12:04;;;;;;;13.13;6.00;;;;;;;1.66;75.66;101292.13;1891737;76;22168;-60
2021/12/14 13:14:37;;;;;;;15.38;6.70;;;;;;;1.49;76.29;101298.55;1873338;76;22182;-66
2021/12/14 13:17:09;;;;;;;40.25;17.25;;;;;;;1.35;77.39;101298.29;1872991;76;22200;-66
2021/12/14 13:19:41;;;;;;;68.52;25.90;;;;;;;1.23;78.16;101294.44;1873067;76;22561;-62
2021/12/14 13:22:16;;;;;;;31.65;12.45;;;;;;;1.13;78.72;101297.02;1891985;76;22164;-59
2021/12/14 13:24:51;;;;;;;64.42;25.68;;;;;;;1.08;79.07;101298.98;1873402;76;22169;-62
2021/12/14 13:27:27;;;;;;;58.83;27.45;;;;;;;1.07;79.60;101301.22;1870623;76;22582;-60
2021/12/14 13:30:05;;;;;;;16.75;7.12;;;;;;;1.05;79.79;101306.52;1892099;76;22160;-58
2021/12/14 13:32:39;;;;;;;9.75;4.85;;;;;;;1.06;80.11;101295.59;1892365;76;22588;-57
2021/12/14 13:35:22;;;;;;;15.03;6.08;;;;;;;1.06;80.40;101289.90;1873718;76;22188;-59
2021/12/14 13:38:13;;;;;;;15.30;6.10;;;;;;;1.03;80.77;101280.86;1873061;76;22180;-59
2021/12/14 13:40:45;;;;;;;12.28;5.47;;;;;;;0.99;81.00;101284.09;1873311;76;22164;-59
2021/12/14 13:43:23;;;;;;;14.47;5.45;;;;;;;1.00;81.16;101281.01;1873443;76;22164;-59
2021/12/14 13:45:58;;;;;;;9.50;4.67;;;;;;;1.01;81.45;101286.17;1873049;76;22212;-57
2021/12/14 13:48:51;;;;;;;12.65;6.30;;;;;;;1.00;81.87;101284.94;1856680;76;28845;-59
2021/12/14 13:51:26;;;;;;;14.23;6.53;;;;;;;1.05;82.11;101271.20;1872982;76;22157;-60
2021/12/14 13:54:16;;;;;;;12.20;4.70;;;;;;;1.08;82.38;101265.81;1891835;76;22361;-60
2021/12/14 13:56:48;;;;;;;10.25;4.80;;;;;;;1.04;82.58;101259.50;1891932;76;22172;-59